createdAt,value
2017-03-14T00:00:09.896Z,58.44
2017-03-14T00:00:50.607Z,57.67
2017-03-14T00:01:31.097Z,57.48
2017-03-14T00:02:11.540Z,57.39
2017-03-14T00:02:52.054Z,57.2
2017-03-14T00:03:32.579Z,57.39
2017-03-14T00:04:13.037Z,57.39
2017-03-14T00:04:53.544Z,57.2
2017-03-14T00:05:33.985Z,57.17
2017-03-14T00:06:14.546Z,56.88
2017-03-14T00:06:55.045Z,57.45
2017-03-14T00:07:35.568Z,57.36
2017-03-14T00:08:16.028Z,57.48
2017-03-14T00:08:56.537Z,57.29
2017-03-14T00:09:37.125Z,57.29
2017-03-14T00:10:17.616Z,57.48
2017-03-14T00:10:58.128Z,57.39
2017-03-14T00:11:38.677Z,57.1
2017-03-14T00:12:19.145Z,57.29
2017-03-14T00:12:59.619Z,57.2
2017-03-14T00:13:40.083Z,57.2
2017-03-14T00:14:20.639Z,57.2
2017-03-14T00:15:01.122Z,56.82
2017-03-14T00:15:41.565Z,56.63
2017-03-14T00:16:22.070Z,56.92
2017-03-14T00:17:02.566Z,57.01
2017-03-14T00:17:43.034Z,57.1
2017-03-14T00:18:23.556Z,57.29
2017-03-14T00:19:04.065Z,57.2
2017-03-14T00:19:44.521Z,57.1
2017-03-14T00:20:24.989Z,57.2
2017-03-14T00:21:05.510Z,57.01
2017-03-14T00:21:45.984Z,57.1
2017-03-14T00:22:26.519Z,57.1
2017-03-14T00:23:06.967Z,57.01
2017-03-14T00:23:47.507Z,57.01
2017-03-14T00:24:27.990Z,56.82
2017-03-14T00:25:08.499Z,57.1
2017-03-14T00:25:49.001Z,56.92
2017-03-14T00:26:29.467Z,57.1
2017-03-14T00:27:09.927Z,57.29
2017-03-14T00:27:50.468Z,57.01
2017-03-14T00:28:30.888Z,56.53
2017-03-14T00:29:11.398Z,56.72
2017-03-14T00:29:51.902Z,56.63
2017-03-14T00:30:32.398Z,56.63
2017-03-14T00:31:12.901Z,56.82
2017-03-14T00:31:53.382Z,57.2
2017-03-14T00:32:33.883Z,57.1
2017-03-14T00:33:14.386Z,57.1
2017-03-14T00:33:54.909Z,57.01
2017-03-14T00:34:35.377Z,57.1
2017-03-14T00:35:15.876Z,56.82
2017-03-14T00:35:56.388Z,57.2
2017-03-14T00:36:36.938Z,56.92
2017-03-14T00:37:17.436Z,57.48
2017-03-14T00:37:57.868Z,57.39
2017-03-14T00:38:38.372Z,57.58
2017-03-14T00:39:18.864Z,57.48
2017-03-14T00:39:59.371Z,57.39
2017-03-14T00:40:39.831Z,57.48
2017-03-14T00:41:20.342Z,57.29
2017-03-14T00:42:00.821Z,57.58
2017-03-14T00:42:41.351Z,57.2
2017-03-14T00:43:21.781Z,57.29
2017-03-14T00:44:02.285Z,57.1
2017-03-14T00:44:42.743Z,57.39
2017-03-14T00:45:23.240Z,57.39
2017-03-14T00:46:03.730Z,57.39
2017-03-14T00:46:44.270Z,57.29
2017-03-14T00:47:24.747Z,57.39
2017-03-14T00:48:05.210Z,57.58
2017-03-14T00:48:45.720Z,57.39
2017-03-14T00:49:26.194Z,57.58
2017-03-14T00:50:06.701Z,57.48
2017-03-14T00:50:47.179Z,57.29
2017-03-14T00:51:27.669Z,57.48
2017-03-14T00:52:08.173Z,57.58
2017-03-14T00:52:48.666Z,57.2
2017-03-14T00:53:29.174Z,57.39
2017-03-14T00:54:09.673Z,57.2
2017-03-14T00:54:50.164Z,56.92
2017-03-14T00:55:30.674Z,57.1
2017-03-14T00:56:11.179Z,57.01
2017-03-14T00:56:51.708Z,56.82
2017-03-14T00:57:32.191Z,56.92
2017-03-14T00:58:12.710Z,56.92
2017-03-14T00:58:53.223Z,57.39
2017-03-14T00:59:33.725Z,57.29
2017-03-14T01:00:14.204Z,57.58
2017-03-14T01:00:54.730Z,57.67
2017-03-14T01:01:35.191Z,57.48
2017-03-14T01:02:15.678Z,57.29
2017-03-14T01:02:56.185Z,57.58
2017-03-14T01:03:36.652Z,57.29
2017-03-14T01:04:17.173Z,57.39
2017-03-14T01:04:57.652Z,57.29
2017-03-14T01:05:38.099Z,57.2
2017-03-14T01:06:18.639Z,57.2
2017-03-14T01:06:59.123Z,57.39
2017-03-14T01:07:39.607Z,57.39
2017-03-14T01:08:20.095Z,57.29
2017-03-14T01:09:00.594Z,57.2
2017-03-14T01:09:41.095Z,57.1
2017-03-14T01:10:21.610Z,57.1
2017-03-14T01:11:02.112Z,57.2
2017-03-14T01:11:42.637Z,57.1
2017-03-14T01:12:23.120Z,56.82
2017-03-14T01:13:03.636Z,57.26
2017-03-14T01:13:44.115Z,57.29
2017-03-14T01:14:24.629Z,57.2
2017-03-14T01:15:05.113Z,57.1
2017-03-14T01:15:45.598Z,57.39
2017-03-14T01:16:26.093Z,57.1
2017-03-14T01:17:06.590Z,57.1
2017-03-14T01:17:47.094Z,57.1
2017-03-14T01:18:27.573Z,57.2
2017-03-14T01:19:08.086Z,57.01
2017-03-14T01:19:48.558Z,57.29
2017-03-14T01:20:29.084Z,57.48
2017-03-14T01:21:09.577Z,57.48
2017-03-14T01:21:50.078Z,57.2
2017-03-14T01:22:30.586Z,57.39
2017-03-14T01:23:11.083Z,57.48
2017-03-14T01:23:51.595Z,57.77
2017-03-14T01:24:32.100Z,58.06
2017-03-14T01:25:12.599Z,57.67
2017-03-14T01:25:53.126Z,58.79
2017-03-14T01:26:33.631Z,58.4
2017-03-14T01:27:14.124Z,58.72
2017-03-14T01:27:54.623Z,58.53
2017-03-14T01:28:35.116Z,58.72
2017-03-14T01:29:15.628Z,58.72
2017-03-14T01:29:56.108Z,58.34
2017-03-14T01:30:36.623Z,58.44
2017-03-14T01:31:17.106Z,58.62
2017-03-14T01:31:57.585Z,58.72
2017-03-14T01:32:38.090Z,58.88
2017-03-14T01:33:18.606Z,58.31
2017-03-14T01:33:59.132Z,58.72
2017-03-14T01:34:39.620Z,58.34
2017-03-14T01:35:20.122Z,58.81
2017-03-14T01:36:00.661Z,58.81
2017-03-14T01:36:41.151Z,58.44
2017-03-14T01:38:54.405Z,58.88
2017-03-14T01:39:34.894Z,58.4
2017-03-14T01:40:15.380Z,58.5
2017-03-14T01:40:55.870Z,58.22
2017-03-14T01:41:36.356Z,58.69
2017-03-14T01:42:16.893Z,58.5
2017-03-14T01:42:57.347Z,58.31
2017-03-14T01:43:37.821Z,58.69
2017-03-14T01:44:18.321Z,58.79
2017-03-14T01:44:58.823Z,58.5
2017-03-14T01:45:39.325Z,58.5
2017-03-14T01:46:19.838Z,58.31
2017-03-14T01:47:00.362Z,58.59
2017-03-14T01:47:40.874Z,58.69
2017-03-14T01:48:21.436Z,58.5
2017-03-14T01:49:01.906Z,58.31
2017-03-14T01:49:42.380Z,58.98
2017-03-14T01:50:22.841Z,58.79
2017-03-14T01:51:03.332Z,58.69
2017-03-14T01:51:43.831Z,58.79
2017-03-14T01:52:24.356Z,58.79
2017-03-14T01:53:04.804Z,58.4
2017-03-14T01:53:45.296Z,58.79
2017-03-14T01:54:25.812Z,58.79
2017-03-14T01:55:06.258Z,58.5
2017-03-14T01:55:46.742Z,58.79
2017-03-14T01:56:27.233Z,58.69
2017-03-14T01:57:07.754Z,58.72
2017-03-14T01:57:48.244Z,58.81
2017-03-14T01:58:28.763Z,58.62
2017-03-14T01:59:09.254Z,58.79
2017-03-14T01:59:49.770Z,58.31
2017-03-14T02:00:30.263Z,58.4
2017-03-14T02:01:10.774Z,58.31
2017-03-14T02:01:51.262Z,58.5
2017-03-14T02:02:31.754Z,58.4
2017-03-14T02:03:12.275Z,58.5
2017-03-14T02:03:52.753Z,58.5
2017-03-14T02:04:33.223Z,58.4
2017-03-14T02:05:13.734Z,58.4
2017-03-14T02:05:54.212Z,58.4
2017-03-14T02:06:34.725Z,58.53
2017-03-14T02:07:15.223Z,58.4
2017-03-14T02:07:55.713Z,58.5
2017-03-14T02:08:36.241Z,58.22
2017-03-14T02:09:16.720Z,58.31
2017-03-14T02:09:57.236Z,58.31
2017-03-14T02:10:37.700Z,58.34
2017-03-14T02:11:18.242Z,58.12
2017-03-14T02:11:58.719Z,58.4
2017-03-14T02:12:39.225Z,58.79
2017-03-14T02:13:19.724Z,58.5
2017-03-14T02:14:00.189Z,58.59
2017-03-14T02:14:40.699Z,58.4
2017-03-14T02:15:21.182Z,58.34
2017-03-14T02:16:01.689Z,58.59
2017-03-14T02:16:42.177Z,58.12
2017-03-14T02:17:22.675Z,58.79
2017-03-14T02:18:03.210Z,58.59
2017-03-14T02:18:43.683Z,58.4
2017-03-14T02:19:24.188Z,58.5
2017-03-14T02:20:04.625Z,58.59
2017-03-14T02:20:45.134Z,58.79
2017-03-14T02:21:25.644Z,58.79
2017-03-14T02:22:06.163Z,59.27
2017-03-14T02:22:46.695Z,58.79
2017-03-14T02:23:27.197Z,59.45
2017-03-14T02:24:07.697Z,58.88
2017-03-14T02:24:48.180Z,59.36
2017-03-14T02:25:28.671Z,58.98
2017-03-14T02:26:09.177Z,58.69
2017-03-14T02:26:49.670Z,58.79
2017-03-14T02:27:30.222Z,59.07
2017-03-14T02:28:10.708Z,59.27
2017-03-14T02:28:51.209Z,58.98
2017-03-14T02:29:31.709Z,58.69
2017-03-14T02:30:12.193Z,59.17
2017-03-14T02:30:52.716Z,59.64
2017-03-14T02:31:33.180Z,59.36
2017-03-14T02:32:13.675Z,59.27
2017-03-14T02:32:54.172Z,59.27
2017-03-14T02:33:34.699Z,58.69
2017-03-14T02:34:15.175Z,59.17
2017-03-14T02:34:55.672Z,59.27
2017-03-14T02:35:36.169Z,58.88
2017-03-14T02:36:16.694Z,59.17
2017-03-14T02:36:57.182Z,59.36
2017-03-14T02:37:37.680Z,59.27
2017-03-14T02:38:18.182Z,59.36
2017-03-14T02:38:58.646Z,58.69
2017-03-14T02:39:39.158Z,58.79
2017-03-14T02:40:19.649Z,59.27
2017-03-14T02:41:00.153Z,59.83
2017-03-14T02:41:40.654Z,59.64
2017-03-14T02:42:21.157Z,59.52
2017-03-14T02:43:01.633Z,59.61
2017-03-14T02:43:42.161Z,59.61
2017-03-14T02:44:22.657Z,59.61
2017-03-14T02:45:03.143Z,60.31
2017-03-14T02:45:43.717Z,60.41
2017-03-14T02:46:24.152Z,59.61
2017-03-14T02:47:04.658Z,59.42
2017-03-14T02:47:45.174Z,59.61
2017-03-14T02:48:25.675Z,59.71
2017-03-14T02:49:06.177Z,60.57
2017-03-14T02:49:46.684Z,60.38
2017-03-14T02:50:27.208Z,60.85
2017-03-14T02:51:07.643Z,60.66
2017-03-14T02:51:48.150Z,61.04
2017-03-14T02:52:28.658Z,61.32
2017-03-14T02:53:09.180Z,61.04
2017-03-14T02:53:49.655Z,60.75
2017-03-14T02:54:30.160Z,60.47
2017-03-14T02:55:10.643Z,60.41
2017-03-14T02:55:51.144Z,60.6
2017-03-14T02:56:31.661Z,59.71
2017-03-14T02:57:12.140Z,59.71
2017-03-14T02:57:52.651Z,59.9
2017-03-14T02:58:33.178Z,60.18
2017-03-14T02:59:13.665Z,59.61
2017-03-14T02:59:54.166Z,59.71
2017-03-14T03:00:34.684Z,60.18
2017-03-14T03:01:15.187Z,60.12
2017-03-14T03:01:55.699Z,60.5
2017-03-14T03:02:36.174Z,60.41
2017-03-14T03:03:16.664Z,59.74
2017-03-14T03:03:57.253Z,59.83
2017-03-14T03:04:37.682Z,59.74
2017-03-14T03:05:18.190Z,59.74
2017-03-14T03:05:58.694Z,59.74
2017-03-14T03:06:39.177Z,59.83
2017-03-14T03:07:19.700Z,59.07
2017-03-14T03:08:00.170Z,59.45
2017-03-14T03:08:40.664Z,59.64
2017-03-14T03:09:21.151Z,59.45
2017-03-14T03:10:01.665Z,59.74
2017-03-14T03:10:42.147Z,59.64
2017-03-14T03:11:22.674Z,59.83
2017-03-14T03:12:03.164Z,59.64
2017-03-14T03:12:43.656Z,59.83
2017-03-14T03:13:24.124Z,59.64
2017-03-14T03:14:04.673Z,59.36
2017-03-14T03:14:45.129Z,59.36
2017-03-14T03:15:25.619Z,59.45
2017-03-14T03:16:06.120Z,59.36
2017-03-14T03:16:46.630Z,59.07
2017-03-14T03:17:27.125Z,59.83
2017-03-14T03:18:07.654Z,58.98
2017-03-14T03:18:48.154Z,58.98
2017-03-14T03:19:28.648Z,59.17
2017-03-14T03:20:09.134Z,59.17
2017-03-14T03:22:02.206Z,59.27
2017-03-14T03:22:42.708Z,58.59
2017-03-14T03:23:23.195Z,58.69
2017-03-14T03:24:03.713Z,58.59
2017-03-14T03:24:44.211Z,58.5
2017-03-14T03:25:24.680Z,58.4
2017-03-14T03:26:05.198Z,58.5
2017-03-14T03:26:45.737Z,58.69
2017-03-14T03:27:26.223Z,58.5
2017-03-14T03:28:06.720Z,58.31
2017-03-14T03:28:47.192Z,58.22
2017-03-14T03:29:27.723Z,58.22
2017-03-14T03:30:08.218Z,58.31
2017-03-14T03:30:48.739Z,57.84
2017-03-14T03:31:29.263Z,58.12
2017-03-14T03:32:09.709Z,58.37
2017-03-14T03:32:50.218Z,58.12
2017-03-14T03:33:30.718Z,58.37
2017-03-14T03:34:11.204Z,58.5
2017-03-14T03:34:51.720Z,58.79
2017-03-14T03:35:32.212Z,59.07
2017-03-14T03:36:12.681Z,59.07
2017-03-14T03:36:53.152Z,58.4
2017-03-14T03:37:33.654Z,58.98
2017-03-14T03:38:14.160Z,58.69
2017-03-14T03:38:54.687Z,58.69
2017-03-14T03:39:35.152Z,58.98
2017-03-14T03:40:15.682Z,58.79
2017-03-14T03:40:56.189Z,58.79
2017-03-14T03:41:36.706Z,58.69
2017-03-14T03:42:17.161Z,58.4
2017-03-14T03:42:57.649Z,58.79
2017-03-14T03:43:38.167Z,58.69
2017-03-14T03:44:18.661Z,58.69
2017-03-14T03:44:59.151Z,58.79
2017-03-14T03:45:39.664Z,58.59
2017-03-14T03:46:20.133Z,58.59
2017-03-14T03:47:00.654Z,58.4
2017-03-14T03:47:41.098Z,58.5
2017-03-14T03:48:21.598Z,58.5
2017-03-14T03:49:02.090Z,58.31
2017-03-14T03:49:42.618Z,58.31
2017-03-14T03:50:23.096Z,58.4
2017-03-14T03:51:03.596Z,58.79
2017-03-14T03:51:44.070Z,58.59
2017-03-14T03:52:24.574Z,58.31
2017-03-14T03:53:05.067Z,58.69
2017-03-14T03:53:45.586Z,59.17
2017-03-14T03:54:26.054Z,58.98
2017-03-14T03:55:06.566Z,59.07
2017-03-14T03:55:47.053Z,59.36
2017-03-14T03:56:27.532Z,59.45
2017-03-14T03:57:08.013Z,59.36
2017-03-14T03:57:48.524Z,59.36
2017-03-14T03:58:29.045Z,59.07
2017-03-14T03:59:09.542Z,59.36
2017-03-14T03:59:50.023Z,59.36
2017-03-14T04:00:30.526Z,59.27
2017-03-14T04:01:11.067Z,59.36
2017-03-14T04:01:51.502Z,59.45
2017-03-14T04:02:32.012Z,59.36
2017-03-14T04:03:12.506Z,59.45
2017-03-14T04:03:53.008Z,59.45
2017-03-14T04:04:33.486Z,58.98
2017-03-14T04:05:13.967Z,58.88
2017-03-14T04:05:54.467Z,58.98
2017-03-14T04:06:34.950Z,59.17
2017-03-14T04:07:15.448Z,59.45
2017-03-14T04:07:55.973Z,58.88
2017-03-14T04:08:36.457Z,58.59
2017-03-14T04:09:16.960Z,58.79
2017-03-14T04:09:57.493Z,58.5
2017-03-14T04:10:37.971Z,58.98
2017-03-14T04:11:18.457Z,58.88
2017-03-14T04:11:58.922Z,59.17
2017-03-14T04:12:39.437Z,58.98
2017-03-14T04:13:19.911Z,58.69
2017-03-14T04:14:00.417Z,58.88
2017-03-14T04:14:40.914Z,59.05
2017-03-14T04:15:21.392Z,59.42
2017-03-14T04:16:02.007Z,59.61
2017-03-14T04:16:42.504Z,59.42
2017-03-14T04:17:23.024Z,59.61
2017-03-14T04:18:03.510Z,59.61
2017-03-14T04:18:43.979Z,59.52
2017-03-14T04:19:24.494Z,59.61
2017-03-14T04:20:04.972Z,59.55
2017-03-14T04:20:45.477Z,59.93
2017-03-14T04:21:25.945Z,59.45
2017-03-14T04:22:06.432Z,59.71
2017-03-14T04:22:46.913Z,59.52
2017-03-14T04:23:27.419Z,59.74
2017-03-14T04:24:07.874Z,59.61
2017-03-14T04:24:48.374Z,59.64
2017-03-14T04:25:28.890Z,59.83
2017-03-14T04:26:09.346Z,59.61
2017-03-14T04:26:49.847Z,59.74
2017-03-14T04:27:30.357Z,59.74
2017-03-14T04:28:10.806Z,59.64
2017-03-14T04:28:51.279Z,59.83
2017-03-14T04:29:31.753Z,59.71
2017-03-14T04:30:12.249Z,59.99
2017-03-14T04:30:52.746Z,60.38
2017-03-14T04:31:33.262Z,60.69
2017-03-14T04:32:13.803Z,60.38
2017-03-14T04:32:54.189Z,60.69
2017-03-14T04:33:34.728Z,59.93
2017-03-14T04:34:15.212Z,59.8
2017-03-14T04:34:55.690Z,59.64
2017-03-14T04:35:36.167Z,59.61
2017-03-14T04:36:16.683Z,59.64
2017-03-14T04:36:57.239Z,59.45
2017-03-14T04:37:37.700Z,59.55
2017-03-14T04:38:18.170Z,59.61
2017-03-14T04:38:58.666Z,59.74
2017-03-14T04:39:39.115Z,59.42
2017-03-14T04:40:19.607Z,59.74
2017-03-14T04:41:00.081Z,59.61
2017-03-14T04:41:40.553Z,59.61
2017-03-14T04:42:21.044Z,59.83
2017-03-14T04:43:01.507Z,59.74
2017-03-14T04:43:42.010Z,59.33
2017-03-14T04:44:22.477Z,59.42
2017-03-14T04:45:03.039Z,59.42
2017-03-14T04:45:43.533Z,59.45
2017-03-14T04:46:24.028Z,59.36
2017-03-14T04:47:04.487Z,59.45
2017-03-14T04:47:44.988Z,59.36
2017-03-14T04:48:25.456Z,59.55
2017-03-14T04:49:05.933Z,58.98
2017-03-14T04:49:46.403Z,59.17
2017-03-14T04:50:26.920Z,59.36
2017-03-14T04:51:07.421Z,59.45
2017-03-14T04:51:47.903Z,59.64
2017-03-14T04:52:28.421Z,59.64
2017-03-14T04:53:08.935Z,59.45
2017-03-14T04:53:49.349Z,59.27
2017-03-14T04:54:29.885Z,59.55
2017-03-14T04:55:10.359Z,59.27
2017-03-14T04:55:50.849Z,58.98
2017-03-14T04:56:31.360Z,59.23
2017-03-14T04:57:11.831Z,59.52
2017-03-14T04:57:52.356Z,59.45
2017-03-14T04:58:32.858Z,59.45
2017-03-14T04:59:13.381Z,59.55
2017-03-14T04:59:53.815Z,59.36
2017-03-14T05:00:34.347Z,59.36
2017-03-14T05:01:14.794Z,59.61
2017-03-14T05:01:55.318Z,59.45
2017-03-14T05:02:35.741Z,59.36
2017-03-14T05:03:16.221Z,59.45
2017-03-14T05:03:56.714Z,59.64
2017-03-14T05:04:37.224Z,59.42
2017-03-14T05:05:17.691Z,59.23
2017-03-14T05:05:58.181Z,59.36
2017-03-14T05:06:38.660Z,59.42
2017-03-14T05:07:19.122Z,59.33
2017-03-14T05:07:59.594Z,59.33
2017-03-14T05:08:40.106Z,59.36
2017-03-14T05:09:20.623Z,59.27
2017-03-14T05:10:01.097Z,59.52
2017-03-14T05:10:41.612Z,59.36
2017-03-14T05:11:22.059Z,59.45
2017-03-14T05:12:02.570Z,59.33
2017-03-14T05:12:43.049Z,59.45
2017-03-14T05:13:23.564Z,59.55
2017-03-14T05:14:04.057Z,59.36
2017-03-14T05:14:44.597Z,59.27
2017-03-14T05:15:25.065Z,59.55
2017-03-14T05:16:05.517Z,59.74
2017-03-14T05:16:46.025Z,59.61
2017-03-14T05:17:26.506Z,59.55
2017-03-14T05:18:06.998Z,59.74
2017-03-14T05:18:47.482Z,59.64
2017-03-14T05:19:28.007Z,59.64
2017-03-14T05:20:08.490Z,59.83
2017-03-14T05:20:48.948Z,59.55
2017-03-14T05:21:29.458Z,59.74
2017-03-14T05:22:09.938Z,59.74
2017-03-14T05:22:50.460Z,59.74
2017-03-14T05:23:30.967Z,59.45
2017-03-14T05:24:11.463Z,59.74
2017-03-14T05:24:52.004Z,59.74
2017-03-14T05:25:32.466Z,59.55
2017-03-14T05:26:12.914Z,59.45
2017-03-14T05:26:53.413Z,59.45
2017-03-14T05:27:33.911Z,59.36
2017-03-14T05:28:14.417Z,59.23
2017-03-14T05:28:54.950Z,59.23
2017-03-14T05:29:35.452Z,59.74
2017-03-14T05:30:15.933Z,59.61
2017-03-14T05:30:56.399Z,59.8
2017-03-14T05:31:36.926Z,59.61
2017-03-14T05:32:17.462Z,59.64
2017-03-14T05:32:57.988Z,59.45
2017-03-14T05:33:38.451Z,59.74
2017-03-14T05:34:18.935Z,59.83
2017-03-14T05:34:59.398Z,59.45
2017-03-14T05:35:39.870Z,59.71
2017-03-14T05:36:20.392Z,59.8
2017-03-14T05:37:00.827Z,59.17
2017-03-14T05:37:41.314Z,59.45
2017-03-14T05:38:21.847Z,59.64
2017-03-14T05:39:02.295Z,59.17
2017-03-14T05:39:42.751Z,59.36
2017-03-14T05:40:23.303Z,59.55
2017-03-14T05:41:03.731Z,59.45
2017-03-14T05:41:44.226Z,59.45
2017-03-14T05:42:24.686Z,59.27
2017-03-14T05:43:05.175Z,59.45
2017-03-14T05:43:45.718Z,59.27
2017-03-14T05:44:26.157Z,59.42
2017-03-14T05:45:06.669Z,59.27
2017-03-14T05:45:47.138Z,59.36
2017-03-14T05:46:27.676Z,59.45
2017-03-14T05:47:08.180Z,59.17
2017-03-14T05:47:48.671Z,59.45
2017-03-14T05:48:29.143Z,59.27
2017-03-14T05:49:09.630Z,59.45
2017-03-14T05:49:50.130Z,59.05
2017-03-14T05:50:30.634Z,59.33
2017-03-14T05:51:11.142Z,59.52
2017-03-14T05:51:51.625Z,59.61
2017-03-14T05:52:32.069Z,59.8
2017-03-14T05:53:12.569Z,60.38
2017-03-14T05:53:53.043Z,60.66
2017-03-14T05:54:33.529Z,60.38
2017-03-14T05:55:14.031Z,60.09
2017-03-14T05:55:54.528Z,59.93
2017-03-14T05:56:35.009Z,60.18
2017-03-14T05:57:15.524Z,59.71
2017-03-14T05:57:56.029Z,59.64
2017-03-14T05:58:36.526Z,59.64
2017-03-14T05:59:17.065Z,59.55
2017-03-14T05:59:57.493Z,59.45
2017-03-14T06:00:38.009Z,59.74
2017-03-14T06:01:18.470Z,59.83
2017-03-14T06:01:58.941Z,59.45
2017-03-14T06:02:39.426Z,59.83
2017-03-14T06:03:19.953Z,59.74
2017-03-14T06:04:00.434Z,59.55
2017-03-14T06:04:40.918Z,59.45
2017-03-14T06:05:21.470Z,59.64
2017-03-14T06:06:02.253Z,59.55
2017-03-14T06:06:42.788Z,59.74
2017-03-14T06:07:23.241Z,59.64
2017-03-14T06:08:03.782Z,59.83
2017-03-14T06:08:44.259Z,59.36
2017-03-14T06:09:24.793Z,59.64
2017-03-14T06:10:05.275Z,59.07
2017-03-14T06:10:45.817Z,59.33
2017-03-14T06:11:26.329Z,59.61
2017-03-14T06:12:06.828Z,59.71
2017-03-14T06:12:47.309Z,59.9
2017-03-14T06:13:27.774Z,59.99
2017-03-14T06:14:08.294Z,59.61
2017-03-14T06:14:48.809Z,59.61
2017-03-14T06:15:29.247Z,59.71
2017-03-14T06:16:09.777Z,59.61
2017-03-14T06:16:50.257Z,59.93
2017-03-14T06:17:30.722Z,60.66
2017-03-14T06:18:11.233Z,60.94
2017-03-14T06:18:51.724Z,61.13
2017-03-14T06:19:32.261Z,62.37
2017-03-14T06:20:12.721Z,62.65
2017-03-14T06:20:53.257Z,62.37
2017-03-14T06:21:33.865Z,62.08
2017-03-14T06:22:14.282Z,62.3
2017-03-14T06:22:54.800Z,62.08
2017-03-14T06:23:35.321Z,62.37
2017-03-14T06:24:15.783Z,62.18
2017-03-14T06:24:56.296Z,62.27
2017-03-14T06:25:36.737Z,62.56
2017-03-14T06:26:17.243Z,63.13
2017-03-14T06:26:57.765Z,63.23
2017-03-14T06:27:38.260Z,63.51
2017-03-14T06:28:18.817Z,63.42
2017-03-14T06:28:59.361Z,63.23
2017-03-14T06:29:39.806Z,62.78
2017-03-14T06:30:20.306Z,63.35
2017-03-14T06:31:00.836Z,63.45
2017-03-14T06:31:41.358Z,63.35
2017-03-14T06:32:21.863Z,63.92
2017-03-14T06:33:02.395Z,63.64
2017-03-14T06:33:42.891Z,63.54
2017-03-14T06:34:23.440Z,63.17
2017-03-14T06:35:03.940Z,63.54
2017-03-14T06:35:44.537Z,65.83
2017-03-14T06:36:25.012Z,74.29
2017-03-14T06:37:05.535Z,78.33
2017-03-14T06:37:46.001Z,79.47
2017-03-14T06:38:26.507Z,81.56
2017-03-14T06:39:07.028Z,80.33
2017-03-14T06:39:47.535Z,77.66
2017-03-14T06:40:28.068Z,79.85
2017-03-14T06:41:08.621Z,80.61
2017-03-14T06:41:49.098Z,78.61
2017-03-14T06:42:29.748Z,73.76
2017-03-14T06:43:10.277Z,69.1
2017-03-14T06:43:50.746Z,67.67
2017-03-14T06:44:31.208Z,66.43
2017-03-14T06:45:11.712Z,65.86
2017-03-14T06:45:52.211Z,65.77
2017-03-14T06:46:33.585Z,65.67
2017-03-14T06:47:14.273Z,65.67
2017-03-14T06:47:54.739Z,64.81
2017-03-14T06:48:35.657Z,67.38
2017-03-14T06:49:16.192Z,74.52
2017-03-14T06:49:56.668Z,77.76
2017-03-14T06:50:37.184Z,82.84
2017-03-14T06:51:17.728Z,83.8
2017-03-14T06:51:58.251Z,76.23
2017-03-14T06:52:38.811Z,73.22
2017-03-14T06:53:19.712Z,73.47
2017-03-14T06:54:00.574Z,74.46
2017-03-14T06:54:41.094Z,70.37
2017-03-14T06:55:21.686Z,67.7
2017-03-14T06:56:02.030Z,65.99
2017-03-14T06:56:42.518Z,64.56
2017-03-14T06:57:23.146Z,64.65
2017-03-14T06:58:03.551Z,64.08
2017-03-14T06:58:47.940Z,63.89
2017-03-14T06:59:27.250Z,63.8
2017-03-14T07:00:07.786Z,63.6
2017-03-14T07:00:48.149Z,62.56
2017-03-14T07:01:28.719Z,62.85
2017-03-14T07:02:09.146Z,62.21
2017-03-14T07:02:49.694Z,61.64
2017-03-14T07:03:30.205Z,61.25
2017-03-14T07:04:10.740Z,61.54
2017-03-14T07:04:51.158Z,61.07
2017-03-14T07:05:31.674Z,61.25
2017-03-14T07:06:12.142Z,60.4
2017-03-14T07:06:52.800Z,59.92
2017-03-14T07:07:33.249Z,60.94
2017-03-14T07:08:13.774Z,61.07
2017-03-14T07:08:54.620Z,60.4
2017-03-14T07:09:35.069Z,59.54
2017-03-14T07:10:15.569Z,58.78
2017-03-14T07:10:56.075Z,58.59
2017-03-14T07:11:36.595Z,58.5
2017-03-14T07:12:17.089Z,58.59
2017-03-14T07:12:57.694Z,57.82
2017-03-14T07:13:38.056Z,58.4
2017-03-14T07:14:18.555Z,57.73
2017-03-14T07:14:59.034Z,58.21
2017-03-14T07:15:39.560Z,58.87
2017-03-14T07:16:20.050Z,59.54
2017-03-14T07:17:00.579Z,59.86
2017-03-14T07:17:40.960Z,61.1
2017-03-14T07:18:21.438Z,62.02
2017-03-14T07:19:01.933Z,62.97
2017-03-14T07:19:42.429Z,62.3
2017-03-14T07:20:23.686Z,62.52
2017-03-14T07:21:04.148Z,57.54
2017-03-14T07:21:44.656Z,58.33
2017-03-14T07:22:25.197Z,59.57
2017-03-14T07:23:05.684Z,64.05
2017-03-14T07:23:46.240Z,67.77
2017-03-14T07:24:26.691Z,69.1
2017-03-14T07:25:07.273Z,74.16
2017-03-14T07:25:47.753Z,84.64
2017-03-14T07:26:28.225Z,84.45
2017-03-14T07:27:08.656Z,88.78
2017-03-14T07:27:49.144Z,92.6
2017-03-14T07:28:29.698Z,88.98
2017-03-14T07:29:10.241Z,86.98
2017-03-14T07:29:50.680Z,70.63
2017-03-14T07:30:31.174Z,79.11
2017-03-14T07:31:11.673Z,89.64
2017-03-14T07:31:52.201Z,91.07
2017-03-14T07:32:32.679Z,90.5
2017-03-14T07:33:13.313Z,86.11
2017-03-14T07:35:01.424Z,68.28
2017-03-14T07:35:42.147Z,63.7
2017-03-14T07:36:22.661Z,62.05
2017-03-14T07:37:03.158Z,62.94
2017-03-14T07:37:43.664Z,61.51
2017-03-14T07:38:24.165Z,62.24
2017-03-14T07:39:04.677Z,62.81
2017-03-14T07:39:45.149Z,60.52
2017-03-14T07:40:25.644Z,71.72
2017-03-14T07:41:06.143Z,68.24
2017-03-14T07:41:46.648Z,79.91
2017-03-14T07:42:27.166Z,77.91
2017-03-14T07:43:07.681Z,73.33
2017-03-14T07:43:48.205Z,79.25
2017-03-14T07:44:28.679Z,74.77
2017-03-14T07:45:09.211Z,82.2
2017-03-14T07:45:49.754Z,73.81
2017-03-14T07:46:30.197Z,63.42
2017-03-14T07:47:10.736Z,66.18
2017-03-14T07:47:51.255Z,63.89
2017-03-14T07:48:31.720Z,61.7
2017-03-14T07:49:12.251Z,59.12
2017-03-14T07:49:52.736Z,56.26
2017-03-14T07:50:33.283Z,56.84
2017-03-14T07:51:13.681Z,55.12
2017-03-14T07:51:54.208Z,55.31
2017-03-14T07:52:34.665Z,55.88
2017-03-14T07:53:15.264Z,56.07
2017-03-14T07:53:55.828Z,56.36
2017-03-14T07:54:36.298Z,57.03
2017-03-14T07:55:16.757Z,55.12
2017-03-14T07:55:57.346Z,55.19
2017-03-14T07:56:37.763Z,55.19
2017-03-14T07:57:18.285Z,56.04
2017-03-14T07:57:58.805Z,56.33
2017-03-14T07:58:39.312Z,55.76
2017-03-14T07:59:19.770Z,56.14
2017-03-14T08:00:00.268Z,55.57
2017-03-14T08:00:40.757Z,57.19
2017-03-14T08:01:21.290Z,68.63
2017-03-14T08:02:01.967Z,74.38
2017-03-14T08:02:42.493Z,65.2
2017-03-14T08:03:22.981Z,67.86
2017-03-14T08:04:03.482Z,60.91
2017-03-14T08:04:43.974Z,58.78
2017-03-14T08:05:24.464Z,64.78
2017-03-14T08:06:04.958Z,61.16
2017-03-14T08:06:45.400Z,59.45
2017-03-14T08:07:25.923Z,62.02
2017-03-14T08:08:06.433Z,59.64
2017-03-14T08:08:46.899Z,57.92
2017-03-14T08:09:27.396Z,57.38
2017-03-14T08:10:07.828Z,57.09
2017-03-14T08:10:48.317Z,57.76
2017-03-14T08:11:28.787Z,56.71
2017-03-14T08:12:09.351Z,56.14
2017-03-14T08:12:49.856Z,59.09
2017-03-14T08:13:30.374Z,59.76
2017-03-14T08:14:10.801Z,57.67
2017-03-14T08:14:51.275Z,56.43
2017-03-14T08:15:31.752Z,56.14
2017-03-14T08:16:12.228Z,60.27
2017-03-14T08:16:52.736Z,58.14
2017-03-14T08:17:33.210Z,58.81
2017-03-14T08:18:13.713Z,61.76
2017-03-14T08:18:54.227Z,67.9
2017-03-14T08:19:34.681Z,62.65
2017-03-14T08:20:15.184Z,59.57
2017-03-14T08:20:55.680Z,61.13
2017-03-14T08:22:44.640Z,77.06
2017-03-14T08:23:25.107Z,82.06
2017-03-14T08:24:05.628Z,71.94
2017-03-14T08:24:46.123Z,77.09
2017-03-14T08:25:26.634Z,75.09
2017-03-14T08:26:07.088Z,75.28
2017-03-14T08:26:47.620Z,65.93
2017-03-14T08:27:28.083Z,68.32
2017-03-14T08:28:08.548Z,70.89
2017-03-14T08:28:49.083Z,65.83
2017-03-14T08:29:29.578Z,61.44
2017-03-14T08:30:10.128Z,62.4
2017-03-14T08:30:50.577Z,58.48
2017-03-14T08:31:31.057Z,55.53
2017-03-14T08:32:11.555Z,57.24
2017-03-14T08:32:52.024Z,58.58
2017-03-14T08:33:32.571Z,58.48
2017-03-14T08:34:13.005Z,58.58
2017-03-14T08:34:53.501Z,59.25
2017-03-14T08:35:33.923Z,58.48
2017-03-14T08:36:14.453Z,61.19
2017-03-14T08:36:54.962Z,60.33
2017-03-14T08:37:35.391Z,59.19
2017-03-14T08:38:15.952Z,61.66
2017-03-14T08:38:56.414Z,62.05
2017-03-14T08:39:36.935Z,61
2017-03-14T08:40:17.432Z,60.46
2017-03-14T08:40:57.901Z,60.84
2017-03-14T08:41:38.431Z,58.54
2017-03-14T08:42:18.935Z,55.01
2017-03-14T08:42:59.405Z,53.08
2017-03-14T08:43:39.889Z,53.36
2017-03-14T08:44:20.429Z,54.15
2017-03-14T08:45:00.900Z,54.15
2017-03-14T08:45:41.964Z,54.25
2017-03-14T08:46:22.077Z,54.82
2017-03-14T08:47:02.551Z,54.72
2017-03-14T08:47:43.087Z,53.22
2017-03-14T08:48:23.549Z,54.27
2017-03-14T08:49:04.119Z,53.7